Time;durP1;ratioP1;P1;durP2;ratioP2;P2;SDS_P1;SDS_P2;PMS_P1;PMS_P2;Temp;Humidity;BMP_temperature;BMP_pressure;BME280_temperature;BME280_humidity;BME280_pressure;Samples;Min_cycle;Max_cycle;Signal;HPM_P1;HPM_P2
2022/08/09 00:01:48;;;;;;;6.75;3.00;;;;;;;22.00;52.15;99414.13;4936946;29;20504;-93
2022/08/09 00:04:17;;;;;;;5.82;2.80;;;;;;;21.96;52.48;99423.41;4936233;29;20028;-93
2022/08/09 00:06:43;;;;;;;5.45;3.17;;;;;;;21.98;52.29;99432.88;4905346;29;20028;-94
2022/08/09 00:09:08;;;;;;;4.55;2.85;;;;;;;22.07;51.68;99435.50;4905355;29;20107;-93
2022/08/09 00:11:34;;;;;;;4.53;2.78;;;;;;;22.09;51.12;99440.63;4920605;29;20035;-95
2022/08/09 00:14:01;;;;;;;5.75;2.90;;;;;;;22.26;51.21;99420.41;4904736;29;20032;-94
2022/08/09 00:16:26;;;;;;;4.47;2.75;;;;;;;22.27;50.66;99461.22;4904454;29;20047;-92
2022/08/09 00:18:51;;;;;;;4.72;2.78;;;;;;;22.20;51.36;99450.81;4904752;29;20057;-95
2022/08/09 00:21:17;;;;;;;4.60;2.83;;;;;;;22.38;50.92;99445.88;4904827;29;20059;-93
2022/08/09 00:23:43;;;;;;;5.20;3.05;;;;;;;22.24;51.30;99450.94;4936715;29;20039;-94
2022/08/09 00:26:09;;;;;;;6.10;2.70;;;;;;;21.99;51.47;99437.19;4904885;29;20039;-91
2022/08/09 00:28:34;;;;;;;4.80;2.85;;;;;;;21.86;52.56;99435.63;4921316;29;20043;-91
2022/08/09 00:31:01;;;;;;;5.15;3.10;;;;;;;21.68;52.33;99428.75;4891529;29;20426;-90
2022/08/09 00:33:30;;;;;;;4.53;3.10;;;;;;;21.63;52.79;99439.94;4888648;29;20031;-90
2022/08/09 00:35:58;;;;;;;4.90;2.70;;;;;;;21.75;52.50;99448.19;4888875;29;20478;-90
2022/08/09 00:38:24;;;;;;;4.85;2.88;;;;;;;21.76;52.43;99431.38;4904795;29;20490;-91
2022/08/09 00:40:49;;;;;;;5.45;2.70;;;;;;;21.83;52.62;99427.28;4888789;29;20032;-90
2022/08/09 00:43:14;;;;;;;4.00;2.83;;;;;;;21.71;52.83;99425.34;4891923;29;20039;-91
2022/08/09 00:45:40;;;;;;;4.90;3.20;;;;;;;22.06;52.50;99433.09;4891909;29;20554;-91
2022/08/09 00:48:05;;;;;;;8.10;3.83;;;;;;;21.87;53.03;99423.53;4888759;29;20514;-90
2022/08/09 00:50:31;;;;;;;3.97;2.97;;;;;;;21.76;52.86;99434.13;4888529;29;20036;-91
2022/08/09 00:52:56;;;;;;;8.77;3.50;;;;;;;21.78;53.39;99440.06;4891006;29;20044;-92
2022/08/09 00:55:22;;;;;;;5.18;3.05;;;;;;;21.64;53.51;99442.31;4891416;29;20023;-91
2022/08/09 00:57:47;;;;;;;5.93;3.20;;;;;;;21.49;54.42;99434.78;4892204;29;20079;-91
2022/08/09 01:00:13;;;;;;;5.75;2.83;;;;;;;21.24;53.86;99442.91;4907034;29;20238;-90
2022/08/09 01:02:41;;;;;;;4.40;2.70;;;;;;;21.22;54.53;99453.41;4887923;29;20044;-90
2022/08/09 01:05:07;;;;;;;4.10;2.80;;;;;;;21.23;54.47;99462.41;4918808;29;20036;-90
2022/08/09 01:07:54;;;;;;;5.70;2.72;;;;;;;21.02;54.80;99443.28;4953177;29;20044;-89
2022/08/09 01:10:33;;;;;;;4.28;2.72;;;;;;;21.20;54.25;99458.41;4922606;29;20042;-90
2022/08/09 01:13:35;;;;;;;3.47;2.80;;;;;;;20.97;55.18;99463.47;4928245;29;20121;-90
2022/08/09 01:16:00;;;;;;;4.05;2.83;;;;;;;20.77;55.71;99451.38;4935762;29;20055;-90
2022/08/09 01:18:29;;;;;;;9.50;3.15;;;;;;;20.62;56.71;99455.53;4894872;29;20044;-90
2022/08/09 01:21:25;;;;;;;11.65;3.30;;;;;;;20.58;56.96;99462.81;4888160;29;20509;-90
2022/08/09 01:24:01;;;;;;;5.60;3.13;;;;;;;20.54;56.93;99467.31;4933560;29;20071;-91
2022/08/09 01:26:53;;;;;;;7.20;3.47;;;;;;;20.45;57.21;99472.06;4922434;29;20028;-90
2022/08/09 01:29:25;;;;;;;7.82;3.35;;;;;;;20.35;57.42;99456.81;4903050;29;20126;-91
2022/08/09 01:31:50;;;;;;;7.43;3.97;;;;;;;20.25;58.46;99449.81;4903347;29;20153;-89
2022/08/09 01:34:19;;;;;;;4.75;3.58;;;;;;;20.20;58.67;99455.47;4903010;29;20036;-90
2022/08/09 01:36:44;;;;;;;5.53;3.70;;;;;;;20.25;58.68;99458.00;4903422;29;20039;-90
2022/08/09 01:39:10;;;;;;;6.20;3.85;;;;;;;20.18;58.64;99446.81;4921055;29;20035;-91
2022/08/09 01:41:35;;;;;;;7.85;4.57;;;;;;;20.26;58.57;99465.09;4924908;29;20086;-91
2022/08/09 01:44:03;;;;;;;6.45;4.88;;;;;;;20.14;58.39;99434.91;4903455;29;20043;-89
2022/08/09 01:46:34;;;;;;;7.72;4.68;;;;;;;20.14;58.94;99437.66;4920110;29;20029;-90
2022/08/09 01:49:05;;;;;;;9.15;4.53;;;;;;;20.06;59.16;99433.84;4937955;29;20055;-91
2022/08/09 01:51:30;;;;;;;10.20;5.65;;;;;;;20.11;59.39;99452.78;4904679;29;20039;-90
2022/08/09 01:53:56;;;;;;;6.07;4.57;;;;;;;20.10;58.61;99450.38;4903720;29;20028;-91
2022/08/09 01:56:21;;;;;;;7.28;4.20;;;;;;;20.04;58.89;99457.97;4924591;29;20035;-93
2022/08/09 01:58:47;;;;;;;7.40;4.18;;;;;;;19.81;59.26;99443.78;4909586;29;20092;-90
2022/08/09 02:01:13;;;;;;;5.93;4.20;;;;;;;19.71;59.44;99455.06;4902629;29;20050;-90
2022/08/09 02:03:41;;;;;;;5.82;4.72;;;;;;;19.62;59.38;99455.06;4898034;29;20039;-90
2022/08/09 02:06:07;;;;;;;6.95;4.53;;;;;;;19.63;59.79;99453.13;4901850;29;20062;-90
2022/08/09 02:08:36;;;;;;;7.78;4.72;;;;;;;19.59;60.04;99466.66;4933668;29;20106;-90
2022/08/09 02:11:02;;;;;;;6.25;4.95;;;;;;;19.51;59.81;99451.09;4936554;29;20035;-90
2022/08/09 02:13:27;;;;;;;7.22;4.95;;;;;;;19.51;60.14;99451.09;4917961;29;20095;-91
2022/08/09 02:15:54;;;;;;;7.25;5.53;;;;;;;19.57;59.90;99461.50;4898881;29;20048;-91
2022/08/09 02:18:26;;;;;;;7.15;5.22;;;;;;;19.61;59.67;99458.94;4893908;29;20035;-91
2022/08/09 02:20:55;;;;;;;7.20;5.10;;;;;;;19.53;60.01;99443.38;4905719;29;20034;-92
2022/08/09 02:23:26;;;;;;;8.77;4.82;;;;;;;19.55;60.98;99446.59;4886182;29;20035;-90
2022/08/09 02:25:51;;;;;;;6.47;4.87;;;;;;;19.56;60.78;99454.44;4917773;29;20163;-90
2022/08/09 02:28:24;;;;;;;8.30;5.22;;;;;;;19.55;60.84;99452.84;4936297;29;20028;-91
2022/08/09 02:30:52;;;;;;;8.00;5.22;;;;;;;19.59;60.02;99464.72;4905642;29;20034;-90
2022/08/09 02:33:21;;;;;;;5.57;4.65;;;;;;;19.45;60.27;99453.19;4912513;29;20060;-90
2022/08/09 02:35:46;;;;;;;6.72;4.00;;;;;;;19.44;60.54;99461.72;4910815;29;20588;-90
2022/08/09 02:38:12;;;;;;;7.03;4.57;;;;;;;19.45;60.50;99469.59;4901773;29;20036;-90
2022/08/09 02:40:37;;;;;;;5.03;3.88;;;;;;;19.33;60.88;99453.06;4885984;29;20475;-91
2022/08/09 02:43:03;;;;;;;6.20;4.60;;;;;;;19.37;60.93;99451.28;4888158;29;20028;-92
2022/08/09 02:45:30;;;;;;;7.95;4.20;;;;;;;19.36;60.97;99457.84;4934354;29;20023;-91
2022/08/09 02:47:58;;;;;;;6.47;4.30;;;;;;;19.42;60.77;99464.75;4901464;29;20034;-91
2022/08/09 02:50:26;;;;;;;7.03;4.07;;;;;;;19.36;61.23;99455.13;4916882;29;20031;-91
2022/08/09 02:52:54;;;;;;;8.82;3.60;;;;;;;19.19;61.04;99458.69;4899508;29;20095;-90
2022/08/09 02:55:19;;;;;;;10.60;3.97;;;;;;;19.22;61.57;99463.53;4885927;29;20402;-90
2022/08/09 02:57:45;;;;;;;5.22;3.95;;;;;;;19.24;60.91;99471.41;4932253;29;20032;-90
2022/08/09 03:00:11;;;;;;;5.32;4.22;;;;;;;19.06;61.12;99463.22;4901602;29;20032;-91
2022/08/09 03:02:38;;;;;;;8.45;4.13;;;;;;;19.03;61.36;99472.06;4890923;29;20062;-90
2022/08/09 03:05:05;;;;;;;6.10;3.92;;;;;;;18.96;61.54;99458.88;4920189;29;20027;-91
2022/08/09 03:07:31;;;;;;;5.65;4.15;;;;;;;18.97;61.14;99462.44;4935034;29;20020;-90
2022/08/09 03:09:56;;;;;;;5.28;3.85;;;;;;;19.02;61.85;99480.56;4901078;29;20024;-91
2022/08/09 03:12:22;;;;;;;8.82;4.25;;;;;;;18.98;61.89;99480.41;4897976;29;20032;-92
2022/08/09 03:14:48;;;;;;;6.97;3.78;;;;;;;18.85;62.13;99474.00;4901308;29;20024;-91
2022/08/09 03:17:14;;;;;;;7.68;4.47;;;;;;;18.86;61.93;99474.78;4885139;29;20020;-89
2022/08/09 03:19:39;;;;;;;6.18;4.55;;;;;;;18.96;61.44;99486.16;4887240;29;20024;-89
2022/08/09 03:22:05;;;;;;;7.70;4.53;;;;;;;18.92;61.86;99484.41;4901092;29;20040;-89
2022/08/09 03:24:30;;;;;;;6.13;3.88;;;;;;;19.00;61.82;99486.34;4886462;29;20110;-89
2022/08/09 03:26:56;;;;;;;7.60;4.30;;;;;;;19.04;61.78;99506.41;4897495;29;20410;-88
2022/08/09 03:29:22;;;;;;;5.88;4.43;;;;;;;18.83;61.99;99489.88;4900887;29;20414;-90
2022/08/09 03:31:47;;;;;;;8.02;4.55;;;;;;;18.72;62.67;99486.63;4937797;29;20035;-90
2022/08/09 03:34:13;;;;;;;6.97;4.40;;;;;;;18.57;63.73;99495.28;4935952;29;20039;-91
2022/08/09 03:36:38;;;;;;;5.32;4.20;;;;;;;18.41;63.99;99485.94;4917985;29;20031;-89
2022/08/09 03:39:04;;;;;;;5.43;4.45;;;;;;;18.38;64.66;99495.56;4887387;29;20474;-89
2022/08/09 03:41:38;;;;;;;8.32;5.13;;;;;;;18.31;64.89;99504.22;4904813;29;20051;-91
2022/08/09 03:44:03;;;;;;;5.13;4.18;;;;;;;18.16;64.83;99496.47;4905097;29;20024;-91
2022/08/09 03:46:29;;;;;;;8.52;4.60;;;;;;;18.13;65.23;99494.38;4919224;29;20541;-92
2022/08/09 03:48:56;;;;;;;5.47;4.60;;;;;;;18.14;65.50;99496.00;4904156;29;20038;-91
2022/08/09 03:51:25;;;;;;;8.98;5.13;;;;;;;18.18;64.81;99496.97;4904386;29;20051;-91
2022/08/09 03:53:50;;;;;;;7.70;5.20;;;;;;;18.09;64.88;99491.47;4903987;29;20126;-94
2022/08/09 03:56:16;;;;;;;12.13;5.60;;;;;;;18.14;65.28;99513.13;4903951;29;20082;-94
2022/08/09 03:58:42;;;;;;;10.65;5.60;;;;;;;18.02;65.53;99498.50;4903734;29;20130;-93
2022/08/09 04:01:08;;;;;;;11.32;5.65;;;;;;;18.07;64.93;99498.34;4904826;29;20426;-94
2022/08/09 04:03:33;;;;;;;9.88;5.10;;;;;;;18.21;65.34;99509.94;4904368;29;20032;-94
2022/08/09 04:05:59;;;;;;;9.48;5.50;;;;;;;18.15;65.21;99512.00;4904146;29;20509;-91
2022/08/09 04:08:24;;;;;;;9.38;5.22;;;;;;;18.22;64.92;99505.28;4905302;29;20027;-91
2022/08/09 04:10:50;;;;;;;7.18;4.60;;;;;;;18.23;65.27;99498.75;4904818;29;20055;-94
2022/08/09 04:13:15;;;;;;;7.47;5.10;;;;;;;18.34;65.08;99498.13;4920382;29;20040;-94
2022/08/09 04:15:43;;;;;;;6.47;4.80;;;;;;;18.37;64.44;99497.50;4921643;29;20621;-94
2022/08/09 04:18:09;;;;;;;8.85;5.00;;;;;;;18.41;64.49;99502.28;4905770;29;20035;-94
2022/08/09 04:20:34;;;;;;;6.68;4.65;;;;;;;18.38;64.56;99499.06;4905650;29;20032;-95
2022/08/09 04:23:00;;;;;;;7.72;5.05;;;;;;;18.48;64.04;99495.25;4922996;29;20040;-95
2022/08/09 04:25:26;;;;;;;8.85;5.05;;;;;;;18.63;63.62;99491.25;4908954;29;20019;-95
2022/08/09 04:27:51;;;;;;;7.45;5.00;;;;;;;18.80;63.27;99485.06;4938765;29;20032;-92
2022/08/09 04:30:21;;;;;;;6.13;4.65;;;;;;;18.88;62.99;99486.19;4923003;29;20027;-95
2022/08/09 04:32:47;;;;;;;5.30;3.60;;;;;;;19.01;62.14;99476.22;4908978;29;20475;-95
2022/08/09 04:35:15;;;;;;;5.57;2.90;;;;;;;19.21;61.47;99493.88;4925254;29;20144;-95
2022/08/09 04:37:40;;;;;;;5.40;3.90;;;;;;;19.50;61.94;99504.09;4889418;29;20036;-93
2022/08/09 04:40:07;;;;;;;5.63;3.85;;;;;;;19.37;61.47;99503.16;4903599;29;20039;-94
2022/08/09 04:42:32;;;;;;;9.82;4.85;;;;;;;19.32;61.04;99501.41;4903960;29;20023;-94
2022/08/09 04:44:58;;;;;;;9.48;4.95;;;;;;;19.43;60.41;99490.94;4935942;29;20026;-92
2022/08/09 04:47:24;;;;;;;11.55;4.50;;;;;;;19.56;60.34;99491.88;4911142;29;20420;-93
2022/08/09 04:49:50;;;;;;;5.22;3.90;;;;;;;19.66;60.07;99501.66;4897374;29;20086;-94
2022/08/09 04:52:16;;;;;;;18.33;5.25;;;;;;;19.58;60.20;99495.09;4888181;29;20042;-93
2022/08/09 04:54:41;;;;;;;17.25;7.57;;;;;;;19.47;60.50;99482.91;4904547;29;20091;-95
2022/08/09 04:57:07;;;;;;;5.00;3.60;;;;;;;19.45;60.44;99485.16;4888162;29;20379;-94
2022/08/09 04:59:33;;;;;;;58.33;10.65;;;;;;;19.81;60.00;99495.69;4881791;29;20035;-90
2022/08/09 05:02:04;;;;;;;10.98;3.88;;;;;;;19.87;59.56;99486.19;4893919;29;20028;-93
2022/08/09 05:04:30;;;;;;;50.85;9.30;;;;;;;19.79;59.81;99492.47;4922095;29;20042;-91
2022/08/09 05:06:56;;;;;;;6.68;3.58;;;;;;;19.67;59.98;99484.13;4887952;29;20434;-92
2022/08/09 05:09:22;;;;;;;6.05;3.75;;;;;;;19.78;59.46;99483.47;4888722;29;20462;-92
2022/08/09 05:11:47;;;;;;;6.57;4.15;;;;;;;19.99;60.46;99502.69;4935228;29;20035;-93
2022/08/09 05:14:13;;;;;;;6.35;4.18;;;;;;;20.09;59.43;99493.31;4906344;29;20063;-93
2022/08/09 05:16:38;;;;;;;5.75;3.88;;;;;;;20.06;59.12;99483.03;4923293;29;20048;-93
2022/08/09 05:19:04;;;;;;;6.30;3.85;;;;;;;20.21;58.93;99473.47;4890525;29;20090;-89
2022/08/09 05:21:29;;;;;;;6.47;4.57;;;;;;;20.50;58.27;99491.81;4890468;29;20505;-91
2022/08/09 05:23:55;;;;;;;7.45;4.15;;;;;;;20.62;58.34;99471.16;4905726;29;20039;-90
2022/08/09 05:26:20;;;;;;;6.90;4.28;;;;;;;20.73;57.01;99477.81;4906473;29;20036;-89
2022/08/09 05:28:54;;;;;;;6.10;4.63;;;;;;;20.88;57.54;99503.81;4890666;29;20027;-89
2022/08/09 05:31:20;;;;;;;8.27;4.80;;;;;;;20.96;56.82;99489.25;4907032;29;20113;-92
2022/08/09 05:33:48;;;;;;;10.00;5.78;;;;;;;21.27;56.35;99507.16;4899384;29;20066;-92
2022/08/09 05:36:14;;;;;;;7.82;4.30;;;;;;;21.04;56.51;99487.56;4919169;29;20028;-92
2022/08/09 05:38:40;;;;;;;9.15;4.85;;;;;;;21.28;56.52;99487.66;4922444;29;20414;-92
2022/08/09 05:41:05;;;;;;;9.40;5.32;;;;;;;21.37;56.06;99498.53;4907983;29;20102;-93
2022/08/09 05:43:34;;;;;;;10.50;5.22;;;;;;;21.36;56.11;99495.00;4942304;29;20038;-94
2022/08/09 05:58:20;;;;;;;11.23;6.60;;;;;;;22.72;51.75;99517.88;6251709;22;1496774;-95
2022/08/09 06:00:47;;;;;;;11.88;5.90;;;;;;;22.44;52.77;99501.31;6183935;23;20019;-95
2022/08/09 06:03:16;;;;;;;10.38;5.40;;;;;;;22.27;53.18;99494.16;6190775;23;20002;-95
2022/08/09 06:05:49;;;;;;;8.63;5.10;;;;;;;22.54;52.85;99516.53;6187988;23;20102;-95
2022/08/09 06:14:16;;;;;;;10.15;4.50;;;;;;;22.34;52.84;99502.59;6266654;23;20100;-96
2022/08/09 06:17:18;;;;;;;99.38;11.57;;;;;;;22.37;52.78;99493.69;6192134;23;20016;-96
2022/08/09 06:19:47;;;;;;;21.38;5.22;;;;;;;22.68;52.34;99507.91;6220646;23;19985;-96
2022/08/09 06:22:19;;;;;;;9.00;4.75;;;;;;;22.92;52.18;99507.06;6209283;23;20004;-94
2022/08/09 06:24:55;;;;;;;;;;;;;;;;;;;;;
2022/08/09 06:27:24;;;;;;;9.27;5.45;;;;;;;23.32;51.88;99503.50;6212067;23;20042;-96
2022/08/09 06:30:22;;;;;;;;;;;;;;;;;;;;;
2022/08/09 06:33:06;;;;;;;23.75;10.68;;;;;;;23.40;51.94;99510.78;6244521;23;20022;-96
2022/08/09 06:35:32;;;;;;;9.40;4.60;;;;;;;23.78;51.27;99513.00;6217711;23;20000;-94
2022/08/09 06:40:55;;;;;;;14.00;4.55;;;;;;;23.76;51.35;99489.72;6155082;23;20016;-91
2022/08/09 06:43:27;;;;;;;7.20;3.70;;;;;;;24.07;50.27;99494.44;6144642;23;20321;-91
2022/08/09 06:45:54;;;;;;;;;;;;;;;24.36;50.30;99509.69;6145292;23;20005;-91
2022/08/09 06:48:19;;;;;;;7.78;4.13;;;;;;;24.48;50.30;99502.47;6169022;23;19904;-91
2022/08/09 06:50:45;;;;;;;5.15;3.17;;;;;;;24.52;47.37;99504.19;6142626;23;20456;-91
2022/08/09 06:53:12;;;;;;;5.05;3.80;;;;;;;24.83;47.35;99496.97;6144155;23;20007;-92
2022/08/09 06:55:42;;;;;;;3.90;2.90;;;;;;;24.84;46.05;99479.31;6143863;23;20012;-90
2022/08/09 06:58:08;;;;;;;5.20;3.47;;;;;;;25.26;46.02;99495.13;6164559;23;20014;-93
2022/08/09 07:00:43;;;;;;;4.82;3.30;;;;;;;25.49;45.71;99484.13;6136778;23;20001;-93
2022/08/09 07:03:09;;;;;;;5.50;3.75;;;;;;;25.66;46.61;99480.09;6134987;23;20008;-92
2022/08/09 07:05:35;;;;;;;12.40;4.63;;;;;;;25.98;45.93;99493.63;6158846;23;20005;-92
2022/08/09 07:08:02;;;;;;;14.55;5.43;;;;;;;26.11;45.55;99494.25;6208747;22;20027;-94
2022/08/09 07:10:33;;;;;;;29.08;9.43;;;;;;;26.30;45.44;99491.41;6210851;23;20015;-94
2022/08/09 07:13:06;;;;;;;10.57;5.40;;;;;;;26.33;44.23;99473.28;6236444;23;20004;-96
2022/08/09 07:15:34;;;;;;;8.63;4.10;;;;;;;26.34;44.57;99472.13;6239408;23;20010;-96
2022/08/09 07:18:00;;;;;;;8.70;4.78;;;;;;;26.46;44.15;99490.41;6232343;23;20003;-92
2022/08/09 07:20:26;;;;;;;17.90;9.43;;;;;;;26.56;44.05;99487.84;6204423;23;20000;-94
2022/08/09 07:22:54;;;;;;;17.20;7.20;;;;;;;26.74;43.72;99498.34;6238615;22;20080;-95
2022/08/09 07:25:21;;;;;;;13.48;7.72;;;;;;;26.81;43.13;99485.44;6175577;23;20031;-95
2022/08/09 07:27:47;;;;;;;5.63;4.75;;;;;;;26.98;41.80;99499.84;6152868;23;20327;-93
2022/08/09 07:30:36;;;;;;;17.67;10.88;;;;;;;26.72;42.28;99484.91;6174522;23;20001;-95
2022/08/09 07:33:07;;;;;;;3.42;2.88;;;;;;;26.76;42.75;99501.53;6185971;22;20079;-94
2022/08/09 07:35:42;;;;;;;3.92;2.65;;;;;;;26.47;42.95;99495.56;6182820;23;20017;-94
2022/08/09 07:38:17;;;;;;;4.60;3.20;;;;;;;26.57;42.75;99494.97;6156768;23;20001;-96
2022/08/09 07:40:47;;;;;;;10.30;3.28;;;;;;;26.85;42.54;99490.97;6151738;23;19997;-94
2022/08/09 07:43:13;;;;;;;4.68;3.10;;;;;;;27.09;42.00;99508.25;6173642;23;20007;-95
2022/08/09 07:45:39;;;;;;;4.00;2.78;;;;;;;26.80;41.75;99486.59;6145961;23;20059;-92
2022/08/09 07:48:04;;;;;;;3.65;2.50;;;;;;;26.97;41.66;99503.75;6146724;23;20003;-93
2022/08/09 07:50:39;;;;;;;5.82;2.90;;;;;;;26.86;42.11;99484.28;6143366;23;20005;-93
2022/08/09 07:53:12;;;;;;;6.68;3.08;;;;;;;27.01;41.69;99494.34;6179126;23;20023;-95
2022/08/09 07:55:39;;;;;;;4.35;2.95;;;;;;;27.12;41.58;99500.03;6180581;23;20028;-93
2022/08/09 07:58:06;;;;;;;6.60;2.88;;;;;;;27.13;41.77;99504.34;6177555;23;20319;-94
2022/08/09 08:00:31;;;;;;;5.90;3.53;;;;;;;27.21;41.54;99503.28;6154868;23;20346;-92
2022/08/09 08:03:43;;;;;;;3.78;2.92;;;;;;;27.39;41.47;99517.34;6157078;22;20008;-96
2022/08/09 08:06:50;;;;;;;4.43;3.00;;;;;;;27.08;41.69;99493.66;6199730;23;20094;-93
2022/08/09 08:13:40;;;;;;;6.75;2.78;;;;;;;27.48;41.67;99522.56;6081217;23;20082;-95
2022/08/09 08:16:06;;;;;;;5.35;3.03;;;;;;;27.36;41.43;99498.72;6136504;23;20005;-96
2022/08/09 08:18:47;;;;;;;4.30;2.72;;;;;;;27.48;41.29;99496.88;6115901;23;20001;-95
2022/08/09 08:21:13;;;;;;;5.13;2.97;;;;;;;27.51;40.79;99488.59;6090271;23;20340;-94
2022/08/09 08:23:39;;;;;;;5.30;3.10;;;;;;;27.54;40.71;99468.50;6111933;23;20001;-96
2022/08/09 08:26:04;;;;;;;3.63;3.08;;;;;;;27.80;40.62;99491.63;6086968;23;20412;-92
2022/08/09 08:28:36;;;;;;;6.80;3.90;;;;;;;27.81;40.26;99480.19;6086628;23;20009;-96
2022/08/09 08:31:04;;;;;;;;;;;;;;;28.01;39.66;99502.09;6109830;23;20032;-94
2022/08/09 08:33:46;;;;;;;;;;;;;;;;;;;;;
2022/08/09 08:36:12;;;;;;;3.83;2.40;;;;;;;27.95;38.80;99478.72;6150613;23;20005;-95
2022/08/09 08:38:55;;;;;;;6.30;2.60;;;;;;;27.99;39.54;99472.06;6115917;23;20006;-96
2022/08/09 08:41:25;;;;;;;6.50;4.82;;;;;;;28.20;38.95;99473.38;6171178;23;20390;-92
2022/08/09 08:43:54;;;;;;;4.78;2.90;;;;;;;28.34;38.77;99458.84;6174618;23;20004;-93
2022/08/09 08:46:20;;;;;;;8.18;4.45;;;;;;;28.23;39.04;99456.00;6171117;23;20011;-94
2022/08/09 08:48:49;;;;;;;5.30;3.55;;;;;;;28.31;38.50;99479.00;6171368;23;20008;-96
2022/08/09 08:51:27;;;;;;;4.18;2.90;;;;;;;28.35;38.38;99450.16;6152847;23;20012;-94
2022/08/09 08:53:53;;;;;;;3.42;2.70;;;;;;;28.50;38.40;99453.81;6173107;23;20453;-95
2022/08/09 08:56:21;;;;;;;4.78;3.70;;;;;;;28.66;37.95;99455.47;6144795;23;20009;-94
2022/08/09 08:58:49;;;;;;;8.73;7.15;;;;;;;28.73;36.60;99466.59;6151706;23;20434;-95
2022/08/09 09:01:15;;;;;;;30.60;22.95;;;;;;;28.58;37.23;99443.56;6177615;23;20000;-96
2022/08/09 09:03:45;;;;;;;3.10;2.50;;;;;;;28.79;36.93;99449.19;6145472;23;19997;-96
2022/08/09 09:06:11;;;;;;;4.78;3.00;;;;;;;28.93;38.15;99450.41;6144618;23;20083;-95
2022/08/09 09:08:38;;;;;;;4.32;2.50;;;;;;;28.94;38.39;99468.66;6149534;23;20000;-94
2022/08/09 09:11:16;;;;;;;3.15;2.78;;;;;;;28.74;37.91;99444.03;6198309;23;20300;-96
2022/08/09 09:13:43;;;;;;;3.85;2.95;;;;;;;28.93;37.15;99445.69;6149397;23;20000;-96
2022/08/09 09:22:59;;;;;;;9.18;5.10;;;;;;;28.79;36.00;99451.19;6218859;23;20007;-96
2022/08/09 09:25:39;;;;;;;5.03;3.22;;;;;;;28.90;36.36;99453.97;6146743;23;20001;-95
2022/08/09 09:28:17;;;;;;;3.70;2.60;;;;;;;28.97;35.12;99429.88;6171458;23;20035;-95
2022/08/09 09:30:53;;;;;;;3.63;2.55;;;;;;;29.03;36.33;99424.72;6149986;23;20000;-95
2022/08/09 09:33:19;;;;;;;3.97;2.80;;;;;;;28.94;37.42;99425.09;6164609;23;20081;-94
2022/08/09 09:35:50;;;;;;;3.78;2.92;;;;;;;29.27;36.64;99439.06;6197806;23;20418;-95
2022/08/09 09:38:16;;;;;;;2.80;2.38;;;;;;;29.29;35.33;99442.25;6224457;23;20000;-95
2022/08/09 09:40:44;;;;;;;3.67;2.63;;;;;;;29.18;36.46;99431.13;6200072;23;20069;-94
2022/08/09 09:43:17;;;;;;;4.43;3.53;;;;;;;29.14;36.85;99433.88;6197508;23;20004;-92
2022/08/09 09:45:56;;;;;;;5.18;2.95;;;;;;;29.06;36.66;99409.28;6226514;23;20054;-93
2022/08/09 09:48:22;;;;;;;4.78;3.42;;;;;;;29.12;35.70;99416.06;6212622;23;20075;-95
2022/08/09 09:50:50;;;;;;;4.05;3.17;;;;;;;29.22;35.85;99409.75;6225750;23;20008;-96
2022/08/09 09:53:20;;;;;;;3.20;2.30;;;;;;;29.30;36.63;99416.91;6201120;23;20019;-93
2022/08/09 09:56:01;;;;;;;3.28;2.60;;;;;;;29.32;36.41;99422.81;6181565;23;20040;-95
2022/08/09 09:58:46;;;;;;;4.47;3.00;;;;;;;29.47;36.55;99395.09;6206602;23;20019;-94
2022/08/09 10:01:18;;;;;;;7.65;2.47;;;;;;;29.58;34.72;99399.44;6173192;23;19996;-92
2022/08/09 10:03:51;;;;;;;3.85;2.67;;;;;;;29.63;34.75;99403.81;6172372;23;20004;-93
2022/08/09 10:06:17;;;;;;;3.88;2.53;;;;;;;29.48;34.58;99396.69;6199075;23;20312;-92
2022/08/09 10:08:44;;;;;;;5.88;3.72;;;;;;;29.71;35.06;99404.63;6171900;23;20019;-96
2022/08/09 10:11:36;;;;;;;3.97;2.17;;;;;;;29.82;33.82;99405.41;6233230;23;20022;-94
2022/08/09 10:14:04;;;;;;;6.80;2.90;;;;;;;29.85;34.14;99382.41;6207328;23;20004;-94
2022/08/09 10:16:31;;;;;;;4.65;2.70;;;;;;;30.15;33.27;99403.38;6176019;23;19997;-94
2022/08/09 10:18:58;;;;;;;4.35;2.83;;;;;;;30.18;33.46;99386.72;6199140;23;20062;-91
2022/08/09 10:21:24;;;;;;;4.30;3.25;;;;;;;30.33;31.97;99390.25;6174175;23;20004;-95
2022/08/09 10:23:53;;;;;;;3.47;2.30;;;;;;;30.42;31.50;99371.19;6199030;23;20027;-92
2022/08/09 10:26:20;;;;;;;3.15;2.10;;;;;;;30.50;29.02;99382.25;6175000;23;20011;-92
2022/08/09 10:28:46;;;;;;;4.43;2.80;;;;;;;30.58;29.52;99386.59;6174958;22;20003;-96
2022/08/09 10:31:16;;;;;;;3.10;2.03;;;;;;;30.42;29.45;99373.97;6203347;23;19996;-94
2022/08/09 10:33:48;;;;;;;2.90;2.20;;;;;;;30.47;29.83;99363.63;6179801;23;20024;-95
2022/08/09 10:36:15;;;;;;;3.08;1.80;;;;;;;30.64;28.91;99371.06;6200726;23;20004;-95
2022/08/09 10:38:43;;;;;;;7.05;3.88;;;;;;;30.88;28.93;99376.94;6176408;23;20031;-93
2022/08/09 10:41:11;;;;;;;3.58;2.50;;;;;;;30.93;28.98;99363.41;6177074;23;20066;-95
2022/08/09 10:43:44;;;;;;;4.40;2.50;;;;;;;30.96;28.56;99347.88;6175984;23;20406;-95
2022/08/09 10:46:55;;;;;;;6.35;4.15;;;;;;;31.29;28.99;99379.03;6150621;23;19997;-95
2022/08/09 10:49:39;;;;;;;7.15;2.80;;;;;;;31.36;27.51;99367.88;6183231;23;20012;-94
2022/08/09 10:52:29;;;;;;;4.50;2.78;;;;;;;31.28;27.68;99360.78;6224040;23;20000;-94
2022/08/09 10:54:54;;;;;;;3.33;2.50;;;;;;;31.39;28.45;99344.78;6198868;23;20004;-93
2022/08/09 10:57:22;;;;;;;5.05;2.13;;;;;;;31.51;27.87;99330.38;6172579;23;20000;-95
2022/08/09 10:59:47;;;;;;;4.28;2.30;;;;;;;31.67;27.69;99343.78;6147092;23;19997;-93
2022/08/09 11:02:15;;;;;;;4.00;1.90;;;;;;;31.55;25.06;99347.84;6171682;23;20455;-93
2022/08/09 11:04:41;;;;;;;4.30;1.77;;;;;;;31.37;25.09;99336.84;6178477;23;19980;-96
2022/08/09 11:07:25;;;;;;;2.40;1.73;;;;;;;31.53;25.27;99355.03;6176070;23;19996;-96
2022/08/09 11:10:08;;;;;;;3.13;1.60;;;;;;;31.21;25.05;99342.13;6178559;23;20469;-96
2022/08/09 11:12:36;;;;;;;2.92;1.70;;;;;;;31.43;25.19;99342.75;6178170;23;20015;-96
2022/08/09 11:15:17;;;;;;;3.95;1.85;;;;;;;31.48;25.51;99345.13;6146171;23;20075;-93
2022/08/09 11:17:48;;;;;;;5.22;2.30;;;;;;;31.58;26.26;99323.97;6192330;23;20008;-95
2022/08/09 11:20:19;;;;;;;5.90;2.35;;;;;;;31.89;26.38;99333.19;6143038;23;20438;-96
2022/08/09 11:22:51;;;;;;;6.35;2.83;;;;;;;32.03;25.99;99339.84;6174060;23;20072;-95
2022/08/09 11:25:23;;;;;;;3.40;2.60;;;;;;;32.20;26.25;99331.25;6199374;23;20027;-95
2022/08/09 11:27:58;;;;;;;4.60;2.22;;;;;;;32.19;26.10;99301.06;6174167;23;20004;-95
2022/08/09 11:30:26;;;;;;;5.50;2.28;;;;;;;32.51;25.93;99324.91;6184447;22;20059;-95
2022/08/09 11:33:16;;;;;;;3.80;2.30;;;;;;;32.75;25.93;99331.41;6209834;23;20084;-96
2022/08/09 11:35:58;;;;;;;2.97;2.23;;;;;;;32.79;24.69;99304.25;6210000;23;20380;-96
2022/08/09 11:38:36;;;;;;;4.10;2.38;;;;;;;32.61;25.19;99321.22;6184566;23;20005;-96
2022/08/09 11:41:30;;;;;;;3.58;1.80;;;;;;;32.32;25.28;99307.63;6164181;23;20005;-94
2022/08/09 11:43:56;;;;;;;3.20;2.00;;;;;;;32.35;25.53;99314.38;6157784;23;20439;-92
2022/08/09 11:46:21;;;;;;;6.43;3.25;;;;;;;32.20;26.78;99313.75;6165421;23;19993;-93
2022/08/09 11:48:48;;;;;;;6.28;1.92;;;;;;;32.12;24.67;99348.47;6190122;23;20055;-94
2022/08/09 11:51:13;;;;;;;2.67;1.60;;;;;;;31.95;25.36;99337.09;6189932;23;20012;-95
2022/08/09 11:53:40;;;;;;;2.38;1.67;;;;;;;31.83;24.23;99334.84;6144633;23;20013;-93
2022/08/09 11:56:27;;;;;;;2.70;1.60;;;;;;;31.76;25.02;99352.41;6192010;23;20411;-94
2022/08/09 11:59:00;;;;;;;2.80;1.77;;;;;;;31.56;27.02;99382.03;6174728;23;20049;-92
2022/08/09 12:01:43;;;;;;;4.88;2.00;;;;;;;30.71;31.88;99407.16;6179907;23;20000;-94
2022/08/09 12:04:10;;;;;;;5.55;2.20;;;;;;;28.26;39.46;99374.91;6157937;23;20004;-95
2022/08/09 12:07:01;;;;;;;2.72;1.90;;;;;;;27.63;38.63;99395.44;6155515;23;20021;-92
2022/08/09 12:09:29;;;;;;;6.53;2.60;;;;;;;27.18;42.15;99351.19;6202318;23;20000;-92
2022/08/09 12:12:01;;;;;;;6.18;2.80;;;;;;;27.08;44.53;99358.22;6167591;23;19996;-92
2022/08/09 12:14:45;;;;;;;5.47;3.20;;;;;;;25.88;51.25;99339.75;6145287;23;20001;-95
2022/08/09 12:17:52;;;;;;;;;;;;;;;;;;;;;
2022/08/09 12:20:19;;;;;;;5.63;2.90;;;;;;;25.66;55.57;99346.91;6157846;23;20571;-92
2022/08/09 12:22:45;;;;;;;5.43;3.28;;;;;;;25.32;56.65;99358.59;6107977;23;20006;-91